Time;durP1;ratioP1;P1;durP2;ratioP2;P2;SDS_P1;SDS_P2;PMS_P1;PMS_P2;Temp;Humidity;BMP_temperature;BMP_pressure;BME280_temperature;BME280_humidity;BME280_pressure;Samples;Min_cycle;Max_cycle;Signal;HPM_P1;HPM_P2
2023/08/23 00:00:41;;;;;;;10.8;8.1;;;;;;;22.67;85.13379;941.1983;;;;
2023/08/23 00:03:12;;;;;;;10;7.8;;;;;;;22.66;85.04004;941.1458;;;;
2023/08/23 00:05:42;;;;;;;8.8;7.9;;;;;;;22.71;84.74512;941.118;;;;
2023/08/23 00:08:07;;;;;;;9;8;;;;;;;22.74;84.53906;941.1429;;;;
2023/08/23 00:10:32;;;;;;;9.6;7.9;;;;;;;22.83;84.02734;941.088;;;;
2023/08/23 00:12:57;;;;;;;10.9;8;;;;;;;22.9;83.61719;941.145;;;;
2023/08/23 00:15:24;;;;;;;9.3;8;;;;;;;22.94;83.20215;941.0867;;;;
2023/08/23 00:17:49;;;;;;;10;8.1;;;;;;;22.87;83.58789;941.1312;;;;
2023/08/23 00:20:14;;;;;;;9.5;8;;;;;;;22.85;83.86719;941.1263;;;;
2023/08/23 00:22:46;;;;;;;9.4;7.8;;;;;;;22.76;84.14355;941.1301;;;;
2023/08/23 00:25:17;;;;;;;9.7;7.9;;;;;;;22.67;84.45508;941.0812;;;;
2023/08/23 00:27:45;;;;;;;10.7;8.4;;;;;;;22.6;84.85352;941.0938;;;;
2023/08/23 00:30:10;;;;;;;9.7;7.4;;;;;;;22.55;84.96094;941.1165;;;;
2023/08/23 00:32:37;;;;;;;12.9;8.2;;;;;;;22.49;85.26563;941.0818;;;;
2023/08/23 00:35:02;;;;;;;9.5;7.8;;;;;;;22.3;86.2959;941.0302;;;;
2023/08/23 00:37:27;;;;;;;8.7;7.8;;;;;;;22.11;87.11523;940.9611;;;;
2023/08/23 00:39:53;;;;;;;10.5;8.4;;;;;;;21.91;88.37695;941.0566;;;;
2023/08/23 00:42:18;;;;;;;9.4;8;;;;;;;21.93;88.48633;940.9756;;;;
2023/08/23 00:44:43;;;;;;;9.9;7.8;;;;;;;21.94;88.48828;941.0728;;;;
2023/08/23 00:47:08;;;;;;;10.5;8.6;;;;;;;21.96;88.02246;941.0024;;;;
2023/08/23 00:49:34;;;;;;;10.8;8.4;;;;;;;22.06;87.56152;941.0048;;;;
2023/08/23 00:51:58;;;;;;;9.9;8.2;;;;;;;22.14;86.96973;941.0144;;;;
2023/08/23 00:54:23;;;;;;;8.7;7.8;;;;;;;22.04;87.33594;940.9824;;;;
2023/08/23 00:56:48;;;;;;;13.3;8.4;;;;;;;22.01;87.58789;940.9733;;;;
2023/08/23 00:59:16;;;;;;;10.4;8.1;;;;;;;22.1;86.85547;940.9565;;;;
2023/08/23 01:01:41;;;;;;;8.8;7.8;;;;;;;21.87;88.09863;940.9458;;;;
2023/08/23 01:04:06;;;;;;;12.8;8.1;;;;;;;22.07;86.85059;940.9589;;;;
2023/08/23 01:06:31;;;;;;;10.2;8.4;;;;;;;21.99;87.31445;940.986;;;;
2023/08/23 01:08:56;;;;;;;8.9;7.9;;;;;;;22.05;87.31348;940.9914;;;;
2023/08/23 01:11:21;;;;;;;9;7.9;;;;;;;22.15;86.89941;941.0061;;;;
2023/08/23 01:13:46;;;;;;;9.7;8.2;;;;;;;22.25;86.28711;940.9789;;;;
2023/08/23 01:16:11;;;;;;;8.8;7.9;;;;;;;22.23;86.27246;940.9827;;;;
2023/08/23 01:18:38;;;;;;;9.1;8.2;;;;;;;22.19;86.2168;941.0089;;;;
2023/08/23 01:21:03;;;;;;;10.7;8.1;;;;;;;22.16;85.93945;940.9286;;;;
2023/08/23 01:28:02;;;;;;;9.6;7.8;;;;;;;22.09;86.28125;940.9097;;;;
2023/08/23 01:31:01;;;;;;;10.2;7.7;;;;;;;22.11;86.10742;940.9489;;;;
2023/08/23 01:33:26;;;;;;;13.4;8.5;;;;;;;22.24;85.61523;940.9006;;;;
2023/08/23 01:35:51;;;;;;;8.8;7.8;;;;;;;;;;;;;
2023/08/23 01:38:17;;;;;;;9.5;8.2;;;;;;;;;;;;;
2023/08/23 01:40:42;;;;;;;11.2;8.1;;;;;;;;;;;;;
2023/08/23 01:43:07;;;;;;;8;7.2;;;;;;;;;;;;;
2023/08/23 01:45:34;;;;;;;11.4;9.3;;;;;;;;;;;;;
2023/08/23 01:47:59;;;;;;;9.6;8.6;;;;;;;;;;;;;
2023/08/23 01:50:25;;;;;;;9.1;8.2;;;;;;;;;;;;;
2023/08/23 01:52:50;;;;;;;10.5;7.8;;;;;;;;;;;;;
2023/08/23 01:55:17;;;;;;;8.1;7.3;;;;;;;;;;;;;
2023/08/23 01:57:41;;;;;;;9.4;7.5;;;;;;;;;;;;;
2023/08/23 02:00:06;;;;;;;9.7;8.2;;;;;;;;;;;;;
2023/08/23 02:02:32;;;;;;;9.1;7.5;;;;;;;;;;;;;
2023/08/23 02:04:57;;;;;;;9.8;8.5;;;;;;;;;;;;;
2023/08/23 02:07:22;;;;;;;9.5;8.5;;;;;;;;;;;;;
2023/08/23 02:09:47;;;;;;;9.8;8.3;;;;;;;;;;;;;
2023/08/23 02:12:14;;;;;;;9.1;7.8;;;;;;;;;;;;;
2023/08/23 02:14:39;;;;;;;10;7.9;;;;;;;;;;;;;
2023/08/23 02:17:04;;;;;;;9.5;7.9;;;;;;;;;;;;;
2023/08/23 02:19:29;;;;;;;9.3;8.2;;;;;;;;;;;;;
2023/08/23 02:21:54;;;;;;;9.9;8.2;;;;;;;;;;;;;
2023/08/23 02:24:20;;;;;;;9;8.1;;;;;;;;;;;;;
2023/08/23 02:26:45;;;;;;;8.5;7.7;;;;;;;;;;;;;
2023/08/23 02:29:10;;;;;;;8.6;7.6;;;;;;;;;;;;;
2023/08/23 02:31:35;;;;;;;9.3;8.3;;;;;;;;;;;;;
2023/08/23 02:34:01;;;;;;;9.5;7.4;;;;;;;;;;;;;
2023/08/23 02:36:27;;;;;;;10.2;7.9;;;;;;;;;;;;;
2023/08/23 02:38:52;;;;;;;9.8;7.8;;;;;;;;;;;;;
2023/08/23 02:41:17;;;;;;;10.8;8.1;;;;;;;;;;;;;
2023/08/23 02:43:44;;;;;;;8.3;7.5;;;;;;;;;;;;;
2023/08/23 02:46:10;;;;;;;10.3;8.4;;;;;;;;;;;;;
2023/08/23 02:48:35;;;;;;;9.4;7.8;;;;;;;;;;;;;
2023/08/23 02:51:00;;;;;;;9.9;7.7;;;;;;;;;;;;;
2023/08/23 02:53:25;;;;;;;9;7.9;;;;;;;;;;;;;
2023/08/23 02:55:50;;;;;;;8.9;8;;;;;;;;;;;;;
2023/08/23 02:58:16;;;;;;;9.6;8.3;;;;;;;;;;;;;
2023/08/23 03:00:41;;;;;;;9.6;8.5;;;;;;;;;;;;;
2023/08/23 03:03:08;;;;;;;9.5;8.3;;;;;;;;;;;;;
2023/08/23 03:05:33;;;;;;;8.7;7.9;;;;;;;;;;;;;
2023/08/23 03:07:59;;;;;;;9.7;8.3;;;;;;;;;;;;;
2023/08/23 03:10:25;;;;;;;8.8;7.8;;;;;;;;;;;;;
2023/08/23 03:12:50;;;;;;;10.4;8.4;;;;;;;;;;;;;
2023/08/23 03:15:15;;;;;;;9.1;7.8;;;;;;;;;;;;;
2023/08/23 03:17:42;;;;;;;9.8;8;;;;;;;;;;;;;
2023/08/23 03:20:07;;;;;;;9.6;8.1;;;;;;;;;;;;;
2023/08/23 03:22:32;;;;;;;8.5;7.7;;;;;;;;;;;;;
2023/08/23 03:24:57;;;;;;;9.8;8;;;;;;;;;;;;;
2023/08/23 03:27:24;;;;;;;9.6;7.8;;;;;;;;;;;;;
2023/08/23 03:29:49;;;;;;;9.1;7.9;;;;;;;;;;;;;
2023/08/23 03:32:15;;;;;;;11.8;8.6;;;;;;;;;;;;;
2023/08/23 03:34:40;;;;;;;9.2;8.2;;;;;;;;;;;;;
2023/08/23 03:37:08;;;;;;;9.1;7.9;;;;;;;;;;;;;
2023/08/23 03:39:33;;;;;;;8.9;7.9;;;;;;;;;;;;;
2023/08/23 03:41:58;;;;;;;11.1;8.2;;;;;;;;;;;;;
2023/08/23 03:44:23;;;;;;;9.9;8.4;;;;;;;;;;;;;
2023/08/23 03:46:50;;;;;;;9.4;7.8;;;;;;;;;;;;;
2023/08/23 03:49:15;;;;;;;9.8;8;;;;;;;;;;;;;
2023/08/23 03:51:42;;;;;;;8.7;7.7;;;;;;;;;;;;;
2023/08/23 03:54:07;;;;;;;13.8;8.3;;;;;;;;;;;;;
2023/08/23 03:56:32;;;;;;;9;8.1;;;;;;;;;;;;;
2023/08/23 03:58:58;;;;;;;8.9;7.8;;;;;;;;;;;;;
2023/08/23 04:02:31;;;;;;;10;8.4;;;;;;;21.06;90.05566;940.9914;;;;
2023/08/23 04:04:56;;;;;;;10.9;8.5;;;;;;;21.08;89.68555;941.0436;;;;
2023/08/23 04:07:22;;;;;;;10;8.2;;;;;;;20.95;90.49023;941.0508;;;;
2023/08/23 04:09:47;;;;;;;11.9;8.5;;;;;;;20.95;90.78223;941.058;;;;
2023/08/23 04:12:13;;;;;;;11.1;8.8;;;;;;;20.99;90.52051;941.1047;;;;
2023/08/23 04:14:38;;;;;;;11.5;8.4;;;;;;;21.09;89.8623;941.0994;;;;
2023/08/23 04:17:06;;;;;;;9.1;7.9;;;;;;;21.11;89.44531;941.1578;;;;
2023/08/23 04:19:31;;;;;;;9.8;8.4;;;;;;;21.12;89.90332;941.1827;;;;
2023/08/23 04:22:43;;;;;;;9.7;8.4;;;;;;;21.11;89.9248;941.1894;;;;
2023/08/23 04:25:17;;;;;;;8.7;7.8;;;;;;;21.11;89.88965;941.2194;;;;
2023/08/23 04:27:47;;;;;;;8.8;7.9;;;;;;;21.19;89.32324;941.2528;;;;
2023/08/23 04:30:13;;;;;;;9.9;8.5;;;;;;;21.23;88.99121;941.248;;;;
2023/08/23 04:32:38;;;;;;;9.2;8.2;;;;;;;21.28;88.73047;941.2302;;;;
2023/08/23 04:35:05;;;;;;;9.4;8.3;;;;;;;21.32;88.13086;941.1997;;;;
2023/08/23 04:37:30;;;;;;;9;8.1;;;;;;;21.3;87.75195;941.2361;;;;
2023/08/23 04:40:00;;;;;;;9.4;7.8;;;;;;;21.27;87.75781;941.2294;;;;
2023/08/23 04:42:38;;;;;;;9.2;8.3;;;;;;;21.17;88.88477;941.2517;;;;
2023/08/23 04:45:03;;;;;;;10.5;8.5;;;;;;;21.07;90.05566;941.3047;;;;
2023/08/23 04:47:30;;;;;;;10.6;8.1;;;;;;;21.09;90.14355;941.3172;;;;
2023/08/23 04:49:55;;;;;;;9.3;8.3;;;;;;;21.19;89.72852;941.3397;;;;
2023/08/23 04:52:24;;;;;;;10.8;8.5;;;;;;;21.24;88.89746;941.3737;;;;
2023/08/23 04:54:49;;;;;;;10.5;8.2;;;;;;;21.29;88.91992;941.3828;;;;
2023/08/23 04:57:18;;;;;;;10;8.5;;;;;;;21.12;89.21484;941.4572;;;;
2023/08/23 04:59:43;;;;;;;10.9;8;;;;;;;21.16;89.27832;941.4529;;;;
2023/08/23 05:02:13;;;;;;;10.3;8.5;;;;;;;21.19;89.2627;941.4764;;;;
2023/08/23 05:04:44;;;;;;;9.8;8;;;;;;;21.11;89.6084;941.4476;;;;
2023/08/23 05:07:13;;;;;;;8.7;7.9;;;;;;;21.19;89.51953;941.4594;;;;
2023/08/23 05:09:38;;;;;;;8.7;7.8;;;;;;;21.17;89.25879;941.5247;;;;
2023/08/23 05:12:07;;;;;;;9;8;;;;;;;21.11;89.95996;941.5644;;;;
2023/08/23 05:14:32;;;;;;;9.6;7.8;;;;;;;21;90.99023;941.5215;;;;
2023/08/23 05:17:02;;;;;;;8.9;7.8;;;;;;;21.1;90.17969;941.512;;;;
2023/08/23 05:21:52;;;;;;;9.9;8;;;;;;;21.1;90.05371;941.5653;;;;
2023/08/23 05:24:17;;;;;;;9.5;8.5;;;;;;;21.13;89.57715;941.5378;;;;
2023/08/23 05:26:43;;;;;;;11.5;7.9;;;;;;;21.19;89.42676;941.563;;;;
2023/08/23 05:29:08;;;;;;;10.5;8.2;;;;;;;21.2;89.48633;941.5305;;;;
2023/08/23 05:31:34;;;;;;;12;8.1;;;;;;;21.18;89.64648;941.4791;;;;
2023/08/23 05:33:59;;;;;;;10.3;7.9;;;;;;;21.4;89.08398;941.451;;;;
2023/08/23 05:36:26;;;;;;;8.1;7.2;;;;;;;21.75;87.16113;941.3764;;;;
2023/08/23 05:38:51;;;;;;;8.3;7.5;;;;;;;22.39;83.40625;941.3825;;;;
2023/08/23 05:41:17;;;;;;;8.6;7.1;;;;;;;22.66;81.16699;941.3998;;;;
2023/08/23 05:43:43;;;;;;;7.5;6.7;;;;;;;22.95;79.99805;941.3324;;;;
2023/08/23 05:46:10;;;;;;;9.1;6.8;;;;;;;23.11;79.46289;941.3329;;;;
2023/08/23 05:48:36;;;;;;;8.3;7.1;;;;;;;23.59;76.21973;941.3145;;;;
2023/08/23 05:51:00;;;;;;;8.2;7;;;;;;;23.58;76.18164;941.3744;;;;
2023/08/23 05:53:27;;;;;;;7.6;6.7;;;;;;;23.5;76.42773;941.4069;;;;
2023/08/23 05:55:52;;;;;;;7.5;6.8;;;;;;;23.3;77.68652;941.4193;;;;
2023/08/23 05:58:18;;;;;;;9.2;6.8;;;;;;;23.77;76.5332;941.3784;;;;
2023/08/23 06:01:04;;;;;;;7.2;6.5;;;;;;;24.82;73.02148;941.3572;;;;
2023/08/23 06:03:32;;;;;;;7.4;6.6;;;;;;;24.65;71.72168;941.3983;;;;
2023/08/23 06:09:55;;;;;;;7.2;6.5;;;;;;;25.09;70.20898;941.3389;;;;
2023/08/23 06:12:24;;;;;;;7.4;6.7;;;;;;;25.03;70.94238;941.3406;;;;
2023/08/23 06:14:47;;;;;;;8.2;6.8;;;;;;;24.74;71.44043;941.2938;;;;
2023/08/23 06:17:16;;;;;;;8.6;7.1;;;;;;;24.41;72.95508;941.3553;;;;
2023/08/23 06:19:40;;;;;;;8.1;7.3;;;;;;;24.08;74.41895;941.3283;;;;
2023/08/23 06:22:08;;;;;;;9.4;7.3;;;;;;;23.73;76.18457;941.3515;;;;
2023/08/23 06:24:33;;;;;;;9.4;6.9;;;;;;;23.62;76.89453;941.2819;;;;
2023/08/23 06:27:19;;;;;;;8.1;6.9;;;;;;;23.62;77.49609;941.2736;;;;
2023/08/23 06:29:47;;;;;;;9;7.6;;;;;;;23.68;76.95313;941.3192;;;;
2023/08/23 06:32:12;;;;;;;7.8;7;;;;;;;24.73;73.67871;941.3226;;;;
2023/08/23 06:34:38;;;;;;;8.4;6.9;;;;;;;25.99;68.9082;941.3116;;;;
2023/08/23 06:37:03;;;;;;;9;6.9;;;;;;;27.1;64.01758;941.2594;;;;
2023/08/23 06:39:29;;;;;;;8.5;6.7;;;;;;;27.97;60.53125;941.2738;;;;
2023/08/23 06:41:54;;;;;;;7.3;6.6;;;;;;;27.65;60.51074;941.2675;;;;
2023/08/23 06:44:19;;;;;;;7.9;6.6;;;;;;;27.03;63.52051;941.2302;;;;
2023/08/23 06:46:45;;;;;;;8;6.2;;;;;;;27.04;62.4668;941.2231;;;;
2023/08/23 06:49:11;;;;;;;9.1;6.1;;;;;;;27.47;61.29395;941.2623;;;;
2023/08/23 06:51:39;;;;;;;6.6;5.9;;;;;;;27.68;60.35938;941.277;;;;
2023/08/23 06:54:04;;;;;;;7.8;6.2;;;;;;;27.57;60.84473;941.2899;;;;
2023/08/23 07:00:18;;;;;;;9.4;6.2;;;;;;;28.21;59.39844;941.2173;;;;
2023/08/23 07:02:43;;;;;;;7.4;6.6;;;;;;;28.16;59.11719;941.1722;;;;
2023/08/23 07:05:10;;;;;;;8.4;6.5;;;;;;;27.34;61.67969;941.2067;;;;
2023/08/23 07:07:35;;;;;;;7.2;6.5;;;;;;;26.97;63.19238;941.2333;;;;
2023/08/23 07:10:06;;;;;;;7.7;6.4;;;;;;;27.19;62.57031;941.2167;;;;
2023/08/23 07:12:31;;;;;;;8.1;6;;;;;;;26.83;62.88867;941.1845;;;;
2023/08/23 07:14:57;;;;;;;7.8;6.4;;;;;;;26.85;64.85645;941.1595;;;;
2023/08/23 07:17:22;;;;;;;7.6;6.1;;;;;;;28.18;59.5957;941.0394;;;;
2023/08/23 07:19:52;;;;;;;7;6.3;;;;;;;28.23;58.12793;941.1286;;;;
2023/08/23 07:22:20;;;;;;;7.5;6.6;;;;;;;28.47;57.68359;941.1613;;;;
2023/08/23 07:24:45;;;;;;;7;6.3;;;;;;;29.68;55.65625;941.1295;;;;
2023/08/23 07:27:11;;;;;;;6.9;6.2;;;;;;;30.38;53.31934;941.1208;;;;
2023/08/23 07:29:36;;;;;;;7.4;5.9;;;;;;;31.46;50.68066;941.1299;;;;
2023/08/23 07:32:03;;;;;;;6.6;5.9;;;;;;;32.03;48.91016;941.0894;;;;
2023/08/23 07:34:42;;;;;;;7.3;6.2;;;;;;;32.63;47.30859;941.1998;;;;
2023/08/23 07:37:11;;;;;;;7.7;5.9;;;;;;;34.42;43.45801;941.0825;;;;
2023/08/23 07:39:36;;;;;;;7;5.8;;;;;;;34.53;42.54004;941.1167;;;;
2023/08/23 07:42:04;;;;;;;5.9;5.4;;;;;;;35.61;40.62402;941.065;;;;
2023/08/23 07:44:29;;;;;;;6.9;5.4;;;;;;;35.71;40.13672;941.0823;;;;
2023/08/23 07:47:00;;;;;;;6.9;5.6;;;;;;;36.26;39.53223;941.1094;;;;
2023/08/23 07:49:25;;;;;;;7.2;5.8;;;;;;;36.06;38.42578;941.15;;;;
2023/08/23 07:51:53;;;;;;;6.5;5.8;;;;;;;35.53;40.25391;941.1348;;;;
2023/08/23 07:54:18;;;;;;;6.1;5.5;;;;;;;34.92;41.06836;941.1091;;;;
2023/08/23 07:56:43;;;;;;;6.5;5.8;;;;;;;33.43;43.68848;941.0804;;;;
2023/08/23 07:59:08;;;;;;;6.9;6;;;;;;;31.98;46.83203;941.0836;;;;
2023/08/23 08:01:33;;;;;;;6.7;6.1;;;;;;;31.59;48.67188;941.0857;;;;
2023/08/23 08:04:01;;;;;;;6.7;6;;;;;;;31.29;49.69336;941.033;;;;
2023/08/23 08:06:26;;;;;;;8.1;5.9;;;;;;;31.16;50.02539;941.0652;;;;
2023/08/23 08:08:52;;;;;;;9.4;5.9;;;;;;;31.67;49.87891;941.0557;;;;
2023/08/23 08:11:18;;;;;;;6.4;5.8;;;;;;;32.22;47.91211;941.0793;;;;
2023/08/23 08:13:44;;;;;;;6.6;5.7;;;;;;;32.34;46.68945;941.0601;;;;
2023/08/23 08:16:10;;;;;;;7.1;6;;;;;;;32.06;47.54785;940.9936;;;;
2023/08/23 08:18:36;;;;;;;6.4;5.9;;;;;;;31.89;48.53613;941.0258;;;;
2023/08/23 08:21:01;;;;;;;8.4;6.1;;;;;;;31.76;50.59375;941.0079;;;;
2023/08/23 08:23:27;;;;;;;8.7;6.1;;;;;;;31.99;48.1748;940.9966;;;;
2023/08/23 08:25:53;;;;;;;6.4;5.7;;;;;;;31.84;48.90332;940.9456;;;;
2023/08/23 08:28:19;;;;;;;7.7;6.1;;;;;;;31.84;48.81934;940.9357;;;;
2023/08/23 08:30:44;;;;;;;6.9;6.1;;;;;;;31.81;47.85742;940.9045;;;;
2023/08/23 08:33:10;;;;;;;10;5.7;;;;;;;31.82;48.57715;940.9586;;;;
2023/08/23 08:35:35;;;;;;;6.2;5.6;;;;;;;31.61;48.88965;940.9559;;;;
2023/08/23 08:38:04;;;;;;;6.7;6;;;;;;;31.37;48.94727;940.9409;;;;
2023/08/23 08:40:41;;;;;;;8.2;5.9;;;;;;;31.01;50.2959;940.9308;;;;
2023/08/23 08:43:08;;;;;;;6.7;5.8;;;;;;;30.45;50.81836;940.8812;;;;
2023/08/23 08:45:33;;;;;;;7.3;5.6;;;;;;;30.89;52.0752;940.881;;;;
2023/08/23 08:47:58;;;;;;;7.4;6.2;;;;;;;31.53;50.19824;940.9275;;;;
2023/08/23 08:50:24;;;;;;;6.6;5.4;;;;;;;32.39;48.41016;940.9548;;;;
2023/08/23 08:52:49;;;;;;;6.9;5.8;;;;;;;33.16;47.42188;940.9407;;;;
2023/08/23 08:55:14;;;;;;;6.3;5.7;;;;;;;33.73;46.35156;940.9637;;;;
2023/08/23 08:57:41;;;;;;;6.1;5.5;;;;;;;34.14;43.41992;940.9529;;;;
2023/08/23 09:00:07;;;;;;;7.1;5.6;;;;;;;33.88;43.08105;940.9551;;;;
2023/08/23 09:02:31;;;;;;;5.7;5.1;;;;;;;33.82;43.46094;940.9672;;;;
2023/08/23 09:04:59;;;;;;;5.9;5.3;;;;;;;33.53;45.27344;940.9561;;;;
2023/08/23 09:07:26;;;;;;;7.1;5.2;;;;;;;33.46;45.14551;940.9421;;;;
2023/08/23 09:09:52;;;;;;;7.1;5.5;;;;;;;33.27;47.61523;940.8619;;;;
2023/08/23 09:12:20;;;;;;;7.9;5.4;;;;;;;32.52;46.2998;940.8503;;;;
2023/08/23 09:14:45;;;;;;;6.3;5.6;;;;;;;32.49;48.44531;940.8321;;;;
2023/08/23 09:17:12;;;;;;;6.6;5.3;;;;;;;31.23;50.42773;940.72;;;;
2023/08/23 09:19:37;;;;;;;7.1;6.4;;;;;;;31.6;50.93652;940.7056;;;;
2023/08/23 09:22:03;;;;;;;7.6;5.6;;;;;;;31.75;47.33594;940.7001;;;;
2023/08/23 09:24:28;;;;;;;6;5.4;;;;;;;31.83;47.67871;940.7022;;;;
2023/08/23 09:26:53;;;;;;;6.9;6.1;;;;;;;32.16;48.86523;940.6442;;;;
2023/08/23 09:29:22;;;;;;;8.2;6;;;;;;;31.45;50.3457;940.6067;;;;
2023/08/23 09:31:47;;;;;;;8;5.8;;;;;;;31.57;52.94434;940.6685;;;;
2023/08/23 09:34:15;;;;;;;14.7;7.7;;;;;;;31.39;53.80957;940.6116;;;;
2023/08/23 09:36:41;;;;;;;22.7;11.4;;;;;;;31.61;54.50586;940.6406;;;;
2023/08/23 09:39:04;;;;;;;8.4;6.3;;;;;;;31.63;52.5332;940.6247;;;;
2023/08/23 09:41:30;;;;;;;9.7;7.1;;;;;;;31.17;56.47363;940.5916;;;;
2023/08/23 09:43:55;;;;;;;12.1;8;;;;;;;31.3;55.42578;940.6273;;;;
2023/08/23 09:46:21;;;;;;;10.4;7.4;;;;;;;31.01;56.74219;940.6192;;;;
2023/08/23 09:48:46;;;;;;;14.3;7.9;;;;;;;30.86;52.88574;940.6526;;;;
2023/08/23 09:51:19;;;;;;;6.4;5.8;;;;;;;30.75;52.63379;940.6361;;;;
2023/08/23 09:53:45;;;;;;;10.1;6.5;;;;;;;30.42;56.69238;940.5961;;;;
2023/08/23 09:56:10;;;;;;;16.8;9;;;;;;;30.44;57.82813;940.608;;;;
2023/08/23 09:58:35;;;;;;;7.9;6.5;;;;;;;30.81;55.53223;940.6232;;;;
2023/08/23 10:01:02;;;;;;;6.7;6;;;;;;;30.66;55.86133;940.5701;;;;
2023/08/23 10:03:27;;;;;;;19;10.1;;;;;;;31.2;52.01563;940.5783;;;;
2023/08/23 10:05:56;;;;;;;8.4;6.1;;;;;;;31.89;53.36621;940.5284;;;;
2023/08/23 10:08:23;;;;;;;9.4;6.7;;;;;;;31.71;54.99707;940.4775;;;;
2023/08/23 10:10:49;;;;;;;7;6.2;;;;;;;31.92;53.67969;940.4189;;;;
2023/08/23 10:13:12;;;;;;;9.4;6.7;;;;;;;32.34;54.11426;940.4606;;;;
2023/08/23 10:15:39;;;;;;;10.1;6.7;;;;;;;32.78;52.94043;940.5067;;;;
2023/08/23 10:18:04;;;;;;;7.1;6.4;;;;;;;32.82;51.56543;940.5234;;;;
2023/08/23 10:21:17;;;;;;;8.5;5.7;;;;;;;33.04;51.0625;940.3928;;;;
2023/08/23 10:23:46;;;;;;;8.9;5.7;;;;;;;32.82;53.10254;940.4052;;;;
2023/08/23 10:26:10;;;;;;;10.5;6.4;;;;;;;33.18;51.5459;940.3499;;;;
2023/08/23 10:28:36;;;;;;;8.7;6.4;;;;;;;33.24;50.96484;940.3864;;;;
2023/08/23 10:31:01;;;;;;;12.3;6.7;;;;;;;32.95;50.61914;940.3113;;;;
2023/08/23 10:33:27;;;;;;;11.4;6.6;;;;;;;32.12;52.45801;940.3477;;;;
2023/08/23 10:35:52;;;;;;;7.2;5.9;;;;;;;31.86;54.59473;940.2625;;;;
2023/08/23 10:38:17;;;;;;;8;6.1;;;;;;;31.75;55.16992;940.3085;;;;
2023/08/23 10:40:43;;;;;;;8;6;;;;;;;31.83;54.43555;940.2903;;;;
2023/08/23 10:43:09;;;;;;;10.9;6.8;;;;;;;32.16;53.38477;940.3284;;;;
2023/08/23 10:45:36;;;;;;;7.5;5.4;;;;;;;32.84;51.96484;940.3423;;;;
2023/08/23 10:48:01;;;;;;;5.8;5;;;;;;;33.32;51.76563;940.2957;;;;
2023/08/23 10:50:26;;;;;;;6.1;5;;;;;;;34.14;48.89746;940.2877;;;;
2023/08/23 10:52:53;;;;;;;7.8;5.6;;;;;;;34.19;49.92676;940.2697;;;;
2023/08/23 10:55:18;;;;;;;6;5.4;;;;;;;34.81;47.2207;940.2635;;;;
2023/08/23 10:57:45;;;;;;;6.6;5.4;;;;;;;34.81;48.125;940.2678;;;;
2023/08/23 11:00:10;;;;;;;7.6;5.4;;;;;;;34.27;47.90039;940.2966;;;;
2023/08/23 11:02:38;;;;;;;5.9;5.3;;;;;;;33.34;50.12109;940.2928;;;;
2023/08/23 11:05:04;;;;;;;6.6;5.3;;;;;;;33.86;48.97559;940.2941;;;;
2023/08/23 11:07:31;;;;;;;6.4;5.3;;;;;;;34.12;49.50977;940.3134;;;;
2023/08/23 11:09:56;;;;;;;8.8;5.9;;;;;;;33.41;52.0166;940.2556;;;;
2023/08/23 11:12:22;;;;;;;6.5;5.4;;;;;;;34.46;48.37793;940.2584;;;;
2023/08/23 11:14:48;;;;;;;6.8;5.5;;;;;;;35.58;44.63086;940.2593;;;;
2023/08/23 11:17:13;;;;;;;6;5.1;;;;;;;36.56;43.38379;940.2378;;;;
2023/08/23 11:19:39;;;;;;;6.6;5.4;;;;;;;36.74;42.11719;940.3095;;;;
2023/08/23 11:22:04;;;;;;;5.2;4.7;;;;;;;36.54;42.1709;940.2491;;;;
2023/08/23 11:24:31;;;;;;;5.8;4.9;;;;;;;37.43;41.52539;940.2192;;;;
2023/08/23 11:26:56;;;;;;;6.9;5.2;;;;;;;38.34;39.28613;940.1739;;;;
2023/08/23 11:29:21;;;;;;;5.5;4.9;;;;;;;38.13;39.66895;940.1746;;;;
2023/08/23 11:31:50;;;;;;;7.2;5;;;;;;;37.92;39.10449;940.1234;;;;
2023/08/23 11:34:15;;;;;;;6.1;4.8;;;;;;;36.17;42.06348;940.1605;;;;
2023/08/23 11:36:42;;;;;;;6.3;5.6;;;;;;;34.65;45.81836;940.1414;;;;
2023/08/23 11:39:07;;;;;;;10.1;6.5;;;;;;;34.51;45.68359;940.1693;;;;
2023/08/23 11:41:34;;;;;;;5.9;5.2;;;;;;;34.44;47.09863;940.1284;;;;
2023/08/23 11:43:59;;;;;;;8.8;6.3;;;;;;;34.98;45.61035;940.0975;;;;
2023/08/23 11:46:25;;;;;;;8.6;5.4;;;;;;;35.32;44.6543;940.0583;;;;
2023/08/23 11:48:50;;;;;;;7.6;4.9;;;;;;;34.89;45.24023;940.0368;;;;
2023/08/23 11:51:17;;;;;;;5.8;5.1;;;;;;;34.34;46.05273;940.0461;;;;
2023/08/23 11:53:42;;;;;;;13;6.8;;;;;;;34.33;45.89453;940.0237;;;;
2023/08/23 11:56:08;;;;;;;7.9;5.9;;;;;;;33.89;47.75195;940.0575;;;;
2023/08/23 11:58:33;;;;;;;8.3;6.1;;;;;;;33.98;49.09766;940.0784;;;;
2023/08/23 12:01:00;;;;;;;12.1;6.9;;;;;;;34.41;46.97363;940.0328;;;;
2023/08/23 12:03:25;;;;;;;6.7;5.3;;;;;;;34.48;46.05469;940.0858;;;;
2023/08/23 12:05:53;;;;;;;6.1;5.5;;;;;;;34.27;47.02051;940.0647;;;;
2023/08/23 12:08:18;;;;;;;9.5;6.5;;;;;;;34.3;46.16895;940.0785;;;;
2023/08/23 12:10:44;;;;;;;7.9;6.2;;;;;;;33.56;48.71484;940.0634;;;;
2023/08/23 12:13:12;;;;;;;9.2;6.6;;;;;;;33.1;49.5791;940.0353;;;;
2023/08/23 12:15:42;;;;;;;8.7;5.9;;;;;;;32.67;50.45605;940.0912;;;;
2023/08/23 12:18:11;;;;;;;10.7;7;;;;;;;32.35;52.17188;940.0845;;;;
2023/08/23 12:20:36;;;;;;;5.9;5.3;;;;;;;32.28;52.89648;940.0584;;;;
2023/08/23 12:23:01;;;;;;;11.5;6.9;;;;;;;32.25;53.39453;940.0359;;;;
2023/08/23 12:25:30;;;;;;;6.4;5.1;;;;;;;31.98;55.18555;940.0647;;;;
2023/08/23 12:27:55;;;;;;;7.8;5.7;;;;;;;32.03;54.26855;940.0046;;;;
2023/08/23 12:30:25;;;;;;;8.5;6.4;;;;;;;32.61;53.49707;939.9523;;;;
2023/08/23 12:32:50;;;;;;;8.3;6.2;;;;;;;32.69;51.99512;939.9637;;;;
2023/08/23 12:35:15;;;;;;;9.5;5.8;;;;;;;32.69;51.59961;939.9347;;;;
2023/08/23 12:38:11;;;;;;;6.7;5.5;;;;;;;32.23;54.49609;939.921;;;;
2023/08/23 12:40:38;;;;;;;6.2;5.5;;;;;;;31.93;55.19043;939.9334;;;;
2023/08/23 12:43:03;;;;;;;7.9;6.1;;;;;;;32.11;55.67969;939.8969;;;;
2023/08/23 12:45:28;;;;;;;5.9;5.4;;;;;;;31.63;56.18457;939.935;;;;
2023/08/23 12:47:55;;;;;;;16.4;7.6;;;;;;;31.51;54.44434;939.9067;;;;
2023/08/23 12:50:20;;;;;;;7.3;5.4;;;;;;;31.48;54.89746;939.863;;;;
2023/08/23 12:52:51;;;;;;;10.3;6.6;;;;;;;31.42;54.87793;939.8103;;;;
2023/08/23 12:55:16;;;;;;;9.3;6.9;;;;;;;31.41;55.7627;939.8044;;;;
2023/08/23 12:57:42;;;;;;;7.7;5.9;;;;;;;31.71;55.61816;939.7982;;;;
2023/08/23 13:00:08;;;;;;;6.3;5.3;;;;;;;31.88;56.64648;939.7388;;;;
2023/08/23 13:02:38;;;;;;;5.8;5.1;;;;;;;31.92;54.66211;939.7606;;;;
2023/08/23 13:05:10;;;;;;;7.1;4.9;;;;;;;31.48;55.63965;939.7906;;;;
2023/08/23 13:07:39;;;;;;;6.9;5.3;;;;;;;30.83;56.89746;939.7057;;;;
2023/08/23 13:10:04;;;;;;;6.2;4.8;;;;;;;31.19;57.04004;939.7344;;;;
2023/08/23 13:12:32;;;;;;;6.1;5.3;;;;;;;31.65;57.39551;939.757;;;;
2023/08/23 13:14:57;;;;;;;6.6;4.9;;;;;;;32.07;54.29688;939.7255;;;;
2023/08/23 13:17:22;;;;;;;5.5;4.9;;;;;;;32.43;53.11719;939.767;;;;
2023/08/23 13:19:47;;;;;;;6.4;5.3;;;;;;;32.62;52.32324;939.784;;;;
2023/08/23 13:22:12;;;;;;;6.2;5.6;;;;;;;32.61;51.86523;939.7314;;;;
2023/08/23 13:24:38;;;;;;;7.1;5.1;;;;;;;32.31;53.1875;939.7166;;;;
2023/08/23 13:27:03;;;;;;;7.1;5.3;;;;;;;32;54.50391;939.7029;;;;
2023/08/23 15:07:27;;;;;;;6.1;5;;;;;;;32.3;53.0293;939.4325;;;;
2023/08/23 15:10:49;;;;;;;5.7;4.6;;;;;;;31.98;52.16504;939.4384;;;;
2023/08/23 15:13:14;;;;;;;6.4;4.8;;;;;;;31.86;51.93652;939.4855;;;;
2023/08/23 15:15:47;;;;;;;6.6;4.4;;;;;;;31.39;54.0127;939.5309;;;;
2023/08/23 15:18:16;;;;;;;5.7;4.8;;;;;;;31.27;55.61426;939.5496;;;;
2023/08/23 15:20:41;;;;;;;6.6;4.7;;;;;;;31.24;55.02344;939.5416;;;;
2023/08/23 15:23:06;;;;;;;7.3;4.7;;;;;;;31.19;54.88672;939.5257;;;;
2023/08/23 15:25:39;;;;;;;6.1;4.9;;;;;;;31.16;54.6084;939.4653;;;;
2023/08/23 15:56:28;;;;;;;12.2;6;;;;;;;31.51;52.14746;939.6436;;;;
2023/08/23 15:58:53;;;;;;;6.3;4.6;;;;;;;31.32;52.97461;939.6989;;;;
2023/08/23 16:01:23;;;;;;;8.6;4.4;;;;;;;31.28;54.03613;939.7068;;;;
2023/08/23 16:03:48;;;;;;;5.9;4.6;;;;;;;31.06;54.48828;939.7595;;;;
2023/08/23 16:06:18;;;;;;;6.2;4.8;;;;;;;30.88;53.19824;939.6719;;;;
2023/08/23 16:08:42;;;;;;;7.2;4.7;;;;;;;30.87;54.97852;939.6996;;;;
2023/08/23 16:11:10;;;;;;;5.3;4.6;;;;;;;30.83;54.91406;939.6972;;;;
2023/08/23 16:13:36;;;;;;;5.8;4.4;;;;;;;30.83;54.60254;939.6481;;;;
2023/08/23 16:16:06;;;;;;;5.5;4.5;;;;;;;30.83;54.99707;939.6367;;;;
2023/08/23 16:18:36;;;;;;;6.8;4.4;;;;;;;31;55.19727;939.7183;;;;
2023/08/23 16:21:02;;;;;;;5.2;4.7;;;;;;;30.87;55.69727;939.6625;;;;
2023/08/23 16:23:27;;;;;;;7.2;4.9;;;;;;;30.93;55.45215;939.6577;;;;
2023/08/23 16:26:01;;;;;;;4.8;4.3;;;;;;;30.91;55.70117;939.7084;;;;
2023/08/23 16:28:24;;;;;;;5.9;4.7;;;;;;;30.76;54.94141;939.722;;;;
2023/08/23 16:30:52;;;;;;;6.4;5;;;;;;;30.68;54.33398;939.7392;;;;
2023/08/23 16:33:17;;;;;;;6.6;4.8;;;;;;;30.69;54.52637;939.7264;;;;
2023/08/23 16:35:45;;;;;;;6.1;4.6;;;;;;;30.74;54.52051;939.6852;;;;
2023/08/23 16:38:10;;;;;;;6.4;4.6;;;;;;;30.56;54.97559;939.6968;;;;
2023/08/23 16:40:36;;;;;;;5.2;4.7;;;;;;;30.53;55.40332;939.7271;;;;
2023/08/23 16:43:01;;;;;;;6;4.8;;;;;;;30.45;55.35645;939.793;;;;
2023/08/23 16:45:26;;;;;;;6.3;4.5;;;;;;;30.37;55.79004;939.8328;;;;
2023/08/23 16:47:51;;;;;;;5.1;4.6;;;;;;;30.16;56.85059;939.8059;;;;
2023/08/23 16:50:16;;;;;;;7;4.6;;;;;;;29.82;58.16602;939.7885;;;;
2023/08/23 16:52:49;;;;;;;6.7;4.1;;;;;;;29.53;59.19043;939.8151;;;;
2023/08/23 16:55:17;;;;;;;6.9;4.8;;;;;;;29.77;58.7334;939.7787;;;;
2023/08/23 16:57:45;;;;;;;6.2;4.3;;;;;;;29.8;58.57031;939.8008;;;;
2023/08/23 17:00:13;;;;;;;4.9;4.3;;;;;;;29.73;58.63184;939.8359;;;;
2023/08/23 17:02:42;;;;;;;7.4;4.7;;;;;;;29.58;59.15039;939.807;;;;
2023/08/23 17:05:03;;;;;;;7.6;4.5;;;;;;;29.6;59.59375;939.8047;;;;
2023/08/23 17:07:36;;;;;;;5.8;4.6;;;;;;;29.48;60.48242;939.8619;;;;
2023/08/23 17:10:03;;;;;;;5.3;4.7;;;;;;;29.57;59.63672;939.8825;;;;
2023/08/23 17:12:27;;;;;;;5.6;4.6;;;;;;;29.68;59.49609;939.8479;;;;
2023/08/23 17:14:52;;;;;;;6.1;5;;;;;;;29.8;59.00977;939.9152;;;;
2023/08/23 17:17:20;;;;;;;5.6;4.9;;;;;;;29.77;59.01855;939.8349;;;;
2023/08/23 17:19:45;;;;;;;6.6;4.8;;;;;;;29.45;60.16992;939.8773;;;;
2023/08/23 17:22:10;;;;;;;5.2;4.7;;;;;;;29.43;59.64258;939.9445;;;;
2023/08/23 17:24:39;;;;;;;6.9;4.8;;;;;;;29.44;59.70313;939.9967;;;;
2023/08/23 17:27:10;;;;;;;5.6;4.6;;;;;;;29.39;60.10059;940.03;;;;